sensor_id;sensor_type;location;lat;lon;timestamp;temperature;humidity
316;DHT22;14128;48.686;9.738;2023-05-31T00:02:23;13.20;99.90
316;DHT22;14128;48.686;9.738;2023-05-31T00:04:49;13.30;99.90
316;DHT22;14128;48.686;9.738;2023-05-31T00:07:17;13.20;99.90
316;DHT22;14128;48.686;9.738;2023-05-31T00:09:44;13.10;99.90
316;DHT22;14128;48.686;9.738;2023-05-31T00:12:11;13.00;99.90
316;DHT22;14128;48.686;9.738;2023-05-31T00:14:39;13.00;99.90
316;DHT22;14128;48.686;9.738;2023-05-31T00:17:06;12.90;99.90
316;DHT22;14128;48.686;9.738;2023-05-31T00:19:33;12.80;1.00
316;DHT22;14128;48.686;9.738;2023-05-31T00:22:00;12.70;99.90
316;DHT22;14128;48.686;9.738;2023-05-31T00:24:26;12.60;99.90
316;DHT22;14128;48.686;9.738;2023-05-31T00:26:53;12.60;99.90
316;DHT22;14128;48.686;9.738;2023-05-31T00:29:20;12.60;99.90
316;DHT22;14128;48.686;9.738;2023-05-31T00:31:48;12.60;99.90
316;DHT22;14128;48.686;9.738;2023-05-31T00:34:15;12.60;99.90
316;DHT22;14128;48.686;9.738;2023-05-31T00:36:42;12.60;99.90
316;DHT22;14128;48.686;9.738;2023-05-31T00:39:08;12.60;1.00
316;DHT22;14128;48.686;9.738;2023-05-31T00:41:35;12.50;99.90
316;DHT22;14128;48.686;9.738;2023-05-31T00:44:02;12.50;99.90
316;DHT22;14128;48.686;9.738;2023-05-31T00:46:32;12.50;99.90
316;DHT22;14128;48.686;9.738;2023-05-31T00:49:00;12.40;99.90
316;DHT22;14128;48.686;9.738;2023-05-31T00:51:30;12.40;99.90
316;DHT22;14128;48.686;9.738;2023-05-31T00:53:58;12.50;99.90
316;DHT22;14128;48.686;9.738;2023-05-31T00:56:25;12.40;2.80
316;DHT22;14128;48.686;9.738;2023-05-31T00:58:53;12.50;99.90
316;DHT22;14128;48.686;9.738;2023-05-31T01:01:22;12.50;33.90
316;DHT22;14128;48.686;9.738;2023-05-31T01:03:52;12.40;1.00
316;DHT22;14128;48.686;9.738;2023-05-31T01:06:20;12.50;99.90
316;DHT22;14128;48.686;9.738;2023-05-31T01:08:49;12.50;99.90
316;DHT22;14128;48.686;9.738;2023-05-31T01:11:21;12.40;79.70
316;DHT22;14128;48.686;9.738;2023-05-31T01:13:55;12.40;99.90
316;DHT22;14128;48.686;9.738;2023-05-31T01:16:28;12.30;99.90
316;DHT22;14128;48.686;9.738;2023-05-31T01:18:58;12.30;30.60
316;DHT22;14128;48.686;9.738;2023-05-31T01:21:48;12.20;76.60
316;DHT22;14128;48.686;9.738;2023-05-31T01:24:25;12.10;99.90
316;DHT22;14128;48.686;9.738;2023-05-31T01:26:55;12.20;99.90
316;DHT22;14128;48.686;9.738;2023-05-31T01:29:26;12.20;99.90
316;DHT22;14128;48.686;9.738;2023-05-31T01:31:55;12.20;99.90
316;DHT22;14128;48.686;9.738;2023-05-31T01:34:24;12.20;1.00
316;DHT22;14128;48.686;9.738;2023-05-31T01:36:50;12.10;99.90
316;DHT22;14128;48.686;9.738;2023-05-31T01:39:19;12.00;1.00
316;DHT22;14128;48.686;9.738;2023-05-31T01:41:47;11.90;99.90
316;DHT22;14128;48.686;9.738;2023-05-31T01:44:17;11.90;70.50
316;DHT22;14128;48.686;9.738;2023-05-31T01:46:45;11.90;1.00
316;DHT22;14128;48.686;9.738;2023-05-31T01:49:13;11.80;99.90
316;DHT22;14128;48.686;9.738;2023-05-31T01:51:41;11.70;1.00
316;DHT22;14128;48.686;9.738;2023-05-31T01:54:08;11.70;99.90
316;DHT22;14128;48.686;9.738;2023-05-31T01:56:36;11.70;1.00
316;DHT22;14128;48.686;9.738;2023-05-31T01:59:04;11.50;1.00
316;DHT22;14128;48.686;9.738;2023-05-31T02:01:36;11.40;99.90
316;DHT22;14128;48.686;9.738;2023-05-31T02:04:03;11.40;99.90
316;DHT22;14128;48.686;9.738;2023-05-31T02:06:30;11.40;99.90
316;DHT22;14128;48.686;9.738;2023-05-31T02:09:02;11.30;99.90
316;DHT22;14128;48.686;9.738;2023-05-31T02:11:29;11.20;99.90
316;DHT22;14128;48.686;9.738;2023-05-31T02:13:56;11.30;99.90
316;DHT22;14128;48.686;9.738;2023-05-31T02:16:23;11.20;99.90
316;DHT22;14128;48.686;9.738;2023-05-31T02:18:51;11.20;99.90
316;DHT22;14128;48.686;9.738;2023-05-31T02:21:18;11.20;99.90
316;DHT22;14128;48.686;9.738;2023-05-31T02:23:44;11.20;1.00
316;DHT22;14128;48.686;9.738;2023-05-31T02:26:11;11.10;1.00
316;DHT22;14128;48.686;9.738;2023-05-31T02:28:38;11.10;1.00
316;DHT22;14128;48.686;9.738;2023-05-31T02:31:05;11.00;99.90
316;DHT22;14128;48.686;9.738;2023-05-31T02:33:32;11.10;99.90
316;DHT22;14128;48.686;9.738;2023-05-31T02:36:00;11.00;1.00
316;DHT22;14128;48.686;9.738;2023-05-31T02:38:27;11.00;99.90
316;DHT22;14128;48.686;9.738;2023-05-31T02:40:54;10.90;99.90
316;DHT22;14128;48.686;9.738;2023-05-31T02:43:21;10.90;27.50
316;DHT22;14128;48.686;9.738;2023-05-31T02:45:48;10.90;99.90
316;DHT22;14128;48.686;9.738;2023-05-31T02:48:16;10.90;99.90
316;DHT22;14128;48.686;9.738;2023-05-31T02:50:42;10.90;99.90
316;DHT22;14128;48.686;9.738;2023-05-31T02:53:11;10.90;99.90
316;DHT22;14128;48.686;9.738;2023-05-31T02:55:37;10.90;99.90
316;DHT22;14128;48.686;9.738;2023-05-31T02:58:05;10.80;99.90
316;DHT22;14128;48.686;9.738;2023-05-31T03:00:32;10.80;69.00
316;DHT22;14128;48.686;9.738;2023-05-31T03:02:59;10.80;1.00
316;DHT22;14128;48.686;9.738;2023-05-31T03:05:26;10.80;1.00
316;DHT22;14128;48.686;9.738;2023-05-31T03:07:54;10.80;1.00
316;DHT22;14128;48.686;9.738;2023-05-31T03:10:22;10.80;99.90
316;DHT22;14128;48.686;9.738;2023-05-31T03:12:49;10.70;84.20
316;DHT22;14128;48.686;9.738;2023-05-31T03:15:16;10.70;99.90
316;DHT22;14128;48.686;9.738;2023-05-31T03:17:43;10.60;1.00
316;DHT22;14128;48.686;9.738;2023-05-31T03:20:10;10.70;99.90
316;DHT22;14128;48.686;9.738;2023-05-31T03:22:37;10.80;1.00
316;DHT22;14128;48.686;9.738;2023-05-31T03:25:05;10.60;99.90
316;DHT22;14128;48.686;9.738;2023-05-31T03:27:33;10.60;99.90
316;DHT22;14128;48.686;9.738;2023-05-31T03:30:00;10.60;99.90
316;DHT22;14128;48.686;9.738;2023-05-31T03:32:27;10.60;99.90
316;DHT22;14128;48.686;9.738;2023-05-31T03:34:54;10.60;99.90
316;DHT22;14128;48.686;9.738;2023-05-31T03:37:21;10.60;99.90
316;DHT22;14128;48.686;9.738;2023-05-31T03:39:48;10.60;99.90
316;DHT22;14128;48.686;9.738;2023-05-31T03:42:15;10.70;99.90
316;DHT22;14128;48.686;9.738;2023-05-31T03:44:43;10.70;99.90
316;DHT22;14128;48.686;9.738;2023-05-31T03:47:11;10.70;1.00
316;DHT22;14128;48.686;9.738;2023-05-31T03:49:37;10.80;99.90
316;DHT22;14128;48.686;9.738;2023-05-31T03:52:05;10.70;99.90
316;DHT22;14128;48.686;9.738;2023-05-31T03:54:34;10.80;99.90
316;DHT22;14128;48.686;9.738;2023-05-31T03:57:02;11.00;99.90
316;DHT22;14128;48.686;9.738;2023-05-31T03:59:28;11.10;99.90
316;DHT22;14128;48.686;9.738;2023-05-31T04:01:57;11.10;99.90
316;DHT22;14128;48.686;9.738;2023-05-31T04:04:23;11.20;99.90
316;DHT22;14128;48.686;9.738;2023-05-31T04:06:50;11.30;99.90
316;DHT22;14128;48.686;9.738;2023-05-31T04:09:17;11.40;99.90
316;DHT22;14128;48.686;9.738;2023-05-31T04:11:44;11.50;99.90
316;DHT22;14128;48.686;9.738;2023-05-31T04:14:11;11.40;99.90
316;DHT22;14128;48.686;9.738;2023-05-31T04:16:38;11.50;99.90
316;DHT22;14128;48.686;9.738;2023-05-31T04:19:06;11.50;99.90
316;DHT22;14128;48.686;9.738;2023-05-31T04:21:33;11.60;99.90
316;DHT22;14128;48.686;9.738;2023-05-31T04:24:00;11.70;99.90
316;DHT22;14128;48.686;9.738;2023-05-31T04:26:28;11.90;99.90
316;DHT22;14128;48.686;9.738;2023-05-31T04:28:55;11.90;1.00
316;DHT22;14128;48.686;9.738;2023-05-31T04:31:22;12.10;99.90
316;DHT22;14128;48.686;9.738;2023-05-31T04:33:50;12.30;99.90
316;DHT22;14128;48.686;9.738;2023-05-31T04:36:20;12.30;99.90
316;DHT22;14128;48.686;9.738;2023-05-31T04:38:48;12.40;17.30
316;DHT22;14128;48.686;9.738;2023-05-31T04:41:14;12.50;1.00
316;DHT22;14128;48.686;9.738;2023-05-31T04:43:42;12.60;99.90
316;DHT22;14128;48.686;9.738;2023-05-31T04:46:09;12.80;99.90
316;DHT22;14128;48.686;9.738;2023-05-31T04:48:36;12.90;45.30
316;DHT22;14128;48.686;9.738;2023-05-31T04:51:03;12.90;1.00
316;DHT22;14128;48.686;9.738;2023-05-31T04:53:33;12.80;1.00
316;DHT22;14128;48.686;9.738;2023-05-31T04:55:59;12.90;99.90
316;DHT22;14128;48.686;9.738;2023-05-31T04:58:30;12.90;68.90
316;DHT22;14128;48.686;9.738;2023-05-31T05:00:57;12.90;99.90
316;DHT22;14128;48.686;9.738;2023-05-31T05:03:25;12.90;24.50
316;DHT22;14128;48.686;9.738;2023-05-31T05:05:52;13.00;99.90
316;DHT22;14128;48.686;9.738;2023-05-31T05:08:19;13.00;1.00
316;DHT22;14128;48.686;9.738;2023-05-31T05:10:47;13.10;99.90
316;DHT22;14128;48.686;9.738;2023-05-31T05:13:14;13.20;99.90
316;DHT22;14128;48.686;9.738;2023-05-31T05:15:41;13.20;1.00
316;DHT22;14128;48.686;9.738;2023-05-31T05:18:08;13.30;99.90
316;DHT22;14128;48.686;9.738;2023-05-31T05:20:35;13.30;99.90
316;DHT22;14128;48.686;9.738;2023-05-31T05:23:02;13.50;99.90
316;DHT22;14128;48.686;9.738;2023-05-31T05:25:32;13.70;99.90
316;DHT22;14128;48.686;9.738;2023-05-31T05:28:01;13.70;99.90
316;DHT22;14128;48.686;9.738;2023-05-31T05:30:28;13.70;1.00
316;DHT22;14128;48.686;9.738;2023-05-31T05:32:55;13.80;1.00
316;DHT22;14128;48.686;9.738;2023-05-31T05:35:22;13.90;99.90
316;DHT22;14128;48.686;9.738;2023-05-31T05:37:48;14.00;99.90
316;DHT22;14128;48.686;9.738;2023-05-31T05:40:15;14.10;99.90
316;DHT22;14128;48.686;9.738;2023-05-31T05:42:42;14.20;99.90
316;DHT22;14128;48.686;9.738;2023-05-31T05:45:11;14.20;99.90
316;DHT22;14128;48.686;9.738;2023-05-31T05:47:38;14.40;70.00
316;DHT22;14128;48.686;9.738;2023-05-31T05:50:07;14.60;19.50
316;DHT22;14128;48.686;9.738;2023-05-31T05:52:34;14.60;99.90
316;DHT22;14128;48.686;9.738;2023-05-31T05:55:00;14.70;99.90
316;DHT22;14128;48.686;9.738;2023-05-31T05:57:28;14.80;99.90
316;DHT22;14128;48.686;9.738;2023-05-31T05:59:55;15.00;1.00
316;DHT22;14128;48.686;9.738;2023-05-31T06:02:23;15.00;99.90
316;DHT22;14128;48.686;9.738;2023-05-31T06:04:50;15.10;99.90
316;DHT22;14128;48.686;9.738;2023-05-31T06:07:17;15.30;1.00
316;DHT22;14128;48.686;9.738;2023-05-31T06:09:45;15.30;99.90
316;DHT22;14128;48.686;9.738;2023-05-31T06:12:12;15.40;99.90
316;DHT22;14128;48.686;9.738;2023-05-31T06:14:38;15.50;99.90
316;DHT22;14128;48.686;9.738;2023-05-31T06:17:05;15.60;99.90
316;DHT22;14128;48.686;9.738;2023-05-31T06:19:34;15.70;99.90
316;DHT22;14128;48.686;9.738;2023-05-31T06:22:01;15.80;99.90
316;DHT22;14128;48.686;9.738;2023-05-31T06:24:28;15.80;1.00
316;DHT22;14128;48.686;9.738;2023-05-31T06:26:55;15.90;99.90
316;DHT22;14128;48.686;9.738;2023-05-31T06:29:22;16.00;62.60
316;DHT22;14128;48.686;9.738;2023-05-31T06:31:49;16.10;99.90
316;DHT22;14128;48.686;9.738;2023-05-31T06:34:15;16.20;99.90
316;DHT22;14128;48.686;9.738;2023-05-31T06:36:43;16.30;7.30
316;DHT22;14128;48.686;9.738;2023-05-31T06:39:10;16.40;99.90
316;DHT22;14128;48.686;9.738;2023-05-31T06:41:37;16.50;1.00
316;DHT22;14128;48.686;9.738;2023-05-31T06:44:04;16.50;1.00
316;DHT22;14128;48.686;9.738;2023-05-31T06:46:31;16.70;99.90
316;DHT22;14128;48.686;9.738;2023-05-31T06:48:57;16.70;99.90
316;DHT22;14128;48.686;9.738;2023-05-31T06:51:24;16.80;99.90
316;DHT22;14128;48.686;9.738;2023-05-31T06:53:52;16.80;99.90
316;DHT22;14128;48.686;9.738;2023-05-31T06:56:19;16.90;99.90
316;DHT22;14128;48.686;9.738;2023-05-31T06:58:46;17.00;99.90
316;DHT22;14128;48.686;9.738;2023-05-31T07:01:13;17.00;99.90
316;DHT22;14128;48.686;9.738;2023-05-31T07:03:40;17.10;99.90
316;DHT22;14128;48.686;9.738;2023-05-31T07:06:07;17.20;99.90
316;DHT22;14128;48.686;9.738;2023-05-31T07:08:34;17.20;99.90
316;DHT22;14128;48.686;9.738;2023-05-31T07:11:02;17.40;1.00
316;DHT22;14128;48.686;9.738;2023-05-31T07:13:29;17.40;99.90
316;DHT22;14128;48.686;9.738;2023-05-31T07:15:56;17.50;1.00
316;DHT22;14128;48.686;9.738;2023-05-31T07:18:23;17.60;1.00
316;DHT22;14128;48.686;9.738;2023-05-31T07:20:50;17.60;99.90
316;DHT22;14128;48.686;9.738;2023-05-31T07:23:22;17.80;99.90
316;DHT22;14128;48.686;9.738;2023-05-31T07:25:49;17.80;99.90
316;DHT22;14128;48.686;9.738;2023-05-31T07:28:17;18.00;99.90
316;DHT22;14128;48.686;9.738;2023-05-31T07:30:44;18.10;20.70
316;DHT22;14128;48.686;9.738;2023-05-31T07:33:10;18.20;99.90
316;DHT22;14128;48.686;9.738;2023-05-31T07:35:37;18.30;99.90
316;DHT22;14128;48.686;9.738;2023-05-31T07:38:04;18.20;99.90
316;DHT22;14128;48.686;9.738;2023-05-31T07:40:31;18.40;99.90
316;DHT22;14128;48.686;9.738;2023-05-31T07:42:58;18.50;1.00
316;DHT22;14128;48.686;9.738;2023-05-31T07:45:26;18.60;1.00
316;DHT22;14128;48.686;9.738;2023-05-31T07:47:53;18.60;99.90
316;DHT22;14128;48.686;9.738;2023-05-31T07:50:20;18.70;99.90
316;DHT22;14128;48.686;9.738;2023-05-31T07:52:47;18.80;99.90
316;DHT22;14128;48.686;9.738;2023-05-31T07:55:15;18.90;99.90
316;DHT22;14128;48.686;9.738;2023-05-31T07:57:43;19.00;99.90
316;DHT22;14128;48.686;9.738;2023-05-31T08:00:11;19.00;99.90
316;DHT22;14128;48.686;9.738;2023-05-31T08:02:40;19.10;99.90
316;DHT22;14128;48.686;9.738;2023-05-31T08:05:08;19.20;99.90
316;DHT22;14128;48.686;9.738;2023-05-31T08:07:35;19.30;99.90
316;DHT22;14128;48.686;9.738;2023-05-31T08:10:02;19.30;99.90
316;DHT22;14128;48.686;9.738;2023-05-31T08:12:30;19.30;99.90
316;DHT22;14128;48.686;9.738;2023-05-31T08:14:57;19.40;99.90
316;DHT22;14128;48.686;9.738;2023-05-31T08:17:25;19.40;80.70
316;DHT22;14128;48.686;9.738;2023-05-31T08:19:53;19.50;99.90
316;DHT22;14128;48.686;9.738;2023-05-31T08:22:20;19.50;99.90
316;DHT22;14128;48.686;9.738;2023-05-31T08:24:46;19.50;99.90
316;DHT22;14128;48.686;9.738;2023-05-31T08:27:13;19.60;99.90
316;DHT22;14128;48.686;9.738;2023-05-31T08:29:42;19.60;99.90
316;DHT22;14128;48.686;9.738;2023-05-31T08:32:09;19.60;99.90
316;DHT22;14128;48.686;9.738;2023-05-31T08:34:36;19.70;99.90
316;DHT22;14128;48.686;9.738;2023-05-31T08:37:04;19.80;99.90
316;DHT22;14128;48.686;9.738;2023-05-31T08:39:31;19.90;99.90
316;DHT22;14128;48.686;9.738;2023-05-31T08:41:59;20.00;99.90
316;DHT22;14128;48.686;9.738;2023-05-31T08:44:28;20.10;99.90
316;DHT22;14128;48.686;9.738;2023-05-31T08:46:58;20.10;99.90
316;DHT22;14128;48.686;9.738;2023-05-31T08:49:25;20.20;99.90
316;DHT22;14128;48.686;9.738;2023-05-31T08:51:53;20.20;1.00
316;DHT22;14128;48.686;9.738;2023-05-31T08:54:23;20.30;99.90
316;DHT22;14128;48.686;9.738;2023-05-31T08:56:51;20.50;99.90
316;DHT22;14128;48.686;9.738;2023-05-31T08:59:19;20.60;88.50
316;DHT22;14128;48.686;9.738;2023-05-31T09:01:46;20.70;99.90
316;DHT22;14128;48.686;9.738;2023-05-31T09:04:14;20.80;1.00
316;DHT22;14128;48.686;9.738;2023-05-31T09:06:41;20.80;99.90
316;DHT22;14128;48.686;9.738;2023-05-31T09:09:08;21.00;99.90
316;DHT22;14128;48.686;9.738;2023-05-31T09:11:36;21.10;99.90
316;DHT22;14128;48.686;9.738;2023-05-31T09:14:06;21.10;99.90
316;DHT22;14128;48.686;9.738;2023-05-31T09:16:34;21.20;99.90
316;DHT22;14128;48.686;9.738;2023-05-31T09:19:03;21.20;99.90
316;DHT22;14128;48.686;9.738;2023-05-31T09:21:37;21.30;99.90
316;DHT22;14128;48.686;9.738;2023-05-31T09:24:04;21.40;99.90
316;DHT22;14128;48.686;9.738;2023-05-31T09:26:31;21.50;99.90
316;DHT22;14128;48.686;9.738;2023-05-31T09:29:00;21.70;99.90
316;DHT22;14128;48.686;9.738;2023-05-31T09:31:27;21.70;99.90
316;DHT22;14128;48.686;9.738;2023-05-31T09:33:54;21.80;99.90
316;DHT22;14128;48.686;9.738;2023-05-31T09:36:24;21.80;99.90
316;DHT22;14128;48.686;9.738;2023-05-31T09:38:58;21.90;99.90
316;DHT22;14128;48.686;9.738;2023-05-31T09:41:28;22.00;99.90
316;DHT22;14128;48.686;9.738;2023-05-31T09:43:55;22.00;99.90
316;DHT22;14128;48.686;9.738;2023-05-31T09:46:24;22.00;99.90
316;DHT22;14128;48.686;9.738;2023-05-31T09:48:58;22.10;99.90
316;DHT22;14128;48.686;9.738;2023-05-31T09:51:25;22.20;99.90
316;DHT22;14128;48.686;9.738;2023-05-31T09:53:52;22.20;99.90
316;DHT22;14128;48.686;9.738;2023-05-31T09:56:22;22.30;99.90
316;DHT22;14128;48.686;9.738;2023-05-31T09:58:49;22.40;99.90
316;DHT22;14128;48.686;9.738;2023-05-31T10:01:17;22.50;99.90
316;DHT22;14128;48.686;9.738;2023-05-31T10:03:48;22.50;99.90
316;DHT22;14128;48.686;9.738;2023-05-31T10:06:16;22.60;1.00
316;DHT22;14128;48.686;9.738;2023-05-31T10:08:43;22.60;98.40
316;DHT22;14128;48.686;9.738;2023-05-31T10:11:10;22.70;99.90
316;DHT22;14128;48.686;9.738;2023-05-31T10:13:41;22.70;99.90
316;DHT22;14128;48.686;9.738;2023-05-31T10:16:10;22.90;99.90
316;DHT22;14128;48.686;9.738;2023-05-31T10:18:40;22.90;99.90
316;DHT22;14128;48.686;9.738;2023-05-31T10:21:13;22.90;1.00
316;DHT22;14128;48.686;9.738;2023-05-31T10:23:53;23.10;99.90
316;DHT22;14128;48.686;9.738;2023-05-31T10:26:22;23.10;99.90
316;DHT22;14128;48.686;9.738;2023-05-31T10:28:55;23.10;1.00
316;DHT22;14128;48.686;9.738;2023-05-31T10:31:23;23.10;99.90
316;DHT22;14128;48.686;9.738;2023-05-31T10:33:54;23.20;1.00
316;DHT22;14128;48.686;9.738;2023-05-31T10:36:25;23.20;1.00
316;DHT22;14128;48.686;9.738;2023-05-31T10:38:57;23.30;30.90
316;DHT22;14128;48.686;9.738;2023-05-31T10:41:29;23.30;99.90
316;DHT22;14128;48.686;9.738;2023-05-31T10:44:04;23.20;99.90
316;DHT22;14128;48.686;9.738;2023-05-31T10:46:35;23.20;37.10
316;DHT22;14128;48.686;9.738;2023-05-31T10:49:05;23.20;1.00
316;DHT22;14128;48.686;9.738;2023-05-31T10:51:40;23.20;77.20
316;DHT22;14128;48.686;9.738;2023-05-31T10:54:07;23.30;67.00
316;DHT22;14128;48.686;9.738;2023-05-31T10:56:36;23.40;99.90
316;DHT22;14128;48.686;9.738;2023-05-31T10:59:05;23.50;99.90
316;DHT22;14128;48.686;9.738;2023-05-31T11:01:35;23.60;99.90
316;DHT22;14128;48.686;9.738;2023-05-31T11:04:18;23.70;99.90
316;DHT22;14128;48.686;9.738;2023-05-31T11:06:47;23.80;99.90
316;DHT22;14128;48.686;9.738;2023-05-31T11:09:18;23.80;99.90
316;DHT22;14128;48.686;9.738;2023-05-31T11:11:45;23.80;99.90
316;DHT22;14128;48.686;9.738;2023-05-31T11:14:27;23.90;99.90
316;DHT22;14128;48.686;9.738;2023-05-31T11:17:14;24.00;99.90
316;DHT22;14128;48.686;9.738;2023-05-31T11:19:41;24.10;99.90
316;DHT22;14128;48.686;9.738;2023-05-31T11:22:14;24.20;1.00
316;DHT22;14128;48.686;9.738;2023-05-31T11:24:48;24.30;1.00
316;DHT22;14128;48.686;9.738;2023-05-31T11:27:16;24.30;99.90
316;DHT22;14128;48.686;9.738;2023-05-31T11:29:55;24.40;1.00
316;DHT22;14128;48.686;9.738;2023-05-31T11:35:26;24.30;61.60
316;DHT22;14128;48.686;9.738;2023-05-31T11:38:03;24.30;99.90
316;DHT22;14128;48.686;9.738;2023-05-31T11:40:30;24.40;99.90
316;DHT22;14128;48.686;9.738;2023-05-31T11:43:08;24.40;99.90
316;DHT22;14128;48.686;9.738;2023-05-31T11:45:46;24.60;99.90
316;DHT22;14128;48.686;9.738;2023-05-31T11:48:37;24.70;99.90
316;DHT22;14128;48.686;9.738;2023-05-31T11:51:05;24.90;12.70
316;DHT22;14128;48.686;9.738;2023-05-31T11:53:33;25.00;99.90
316;DHT22;14128;48.686;9.738;2023-05-31T11:56:00;25.00;99.90
316;DHT22;14128;48.686;9.738;2023-05-31T11:58:27;25.10;99.90
316;DHT22;14128;48.686;9.738;2023-05-31T12:00:57;25.00;99.90
316;DHT22;14128;48.686;9.738;2023-05-31T12:03:25;25.00;99.90
316;DHT22;14128;48.686;9.738;2023-05-31T12:05:56;24.90;99.90
316;DHT22;14128;48.686;9.738;2023-05-31T12:08:24;25.00;99.90
316;DHT22;14128;48.686;9.738;2023-05-31T12:10:53;25.20;99.90
316;DHT22;14128;48.686;9.738;2023-05-31T12:13:20;25.30;99.90
316;DHT22;14128;48.686;9.738;2023-05-31T12:15:52;25.30;99.90
316;DHT22;14128;48.686;9.738;2023-05-31T12:18:21;25.40;99.90
316;DHT22;14128;48.686;9.738;2023-05-31T12:20:48;25.50;99.90
316;DHT22;14128;48.686;9.738;2023-05-31T12:23:16;25.50;99.90
316;DHT22;14128;48.686;9.738;2023-05-31T12:25:48;25.30;99.90
316;DHT22;14128;48.686;9.738;2023-05-31T12:28:17;25.40;99.90
316;DHT22;14128;48.686;9.738;2023-05-31T12:30:45;25.90;99.90
316;DHT22;14128;48.686;9.738;2023-05-31T12:33:13;26.50;1.00
316;DHT22;14128;48.686;9.738;2023-05-31T12:35:40;27.20;99.90
316;DHT22;14128;48.686;9.738;2023-05-31T12:38:07;27.60;99.90
316;DHT22;14128;48.686;9.738;2023-05-31T12:40:37;28.10;99.90
316;DHT22;14128;48.686;9.738;2023-05-31T12:43:05;28.50;99.90
316;DHT22;14128;48.686;9.738;2023-05-31T12:45:38;29.10;99.90
316;DHT22;14128;48.686;9.738;2023-05-31T12:48:07;29.60;99.90
316;DHT22;14128;48.686;9.738;2023-05-31T12:50:34;30.00;99.90
316;DHT22;14128;48.686;9.738;2023-05-31T12:53:05;30.20;99.90
316;DHT22;14128;48.686;9.738;2023-05-31T12:55:32;30.60;99.90
316;DHT22;14128;48.686;9.738;2023-05-31T12:58:00;31.00;99.90
316;DHT22;14128;48.686;9.738;2023-05-31T13:00:27;31.20;99.90
316;DHT22;14128;48.686;9.738;2023-05-31T13:02:56;31.80;99.90
316;DHT22;14128;48.686;9.738;2023-05-31T13:05:23;32.00;99.90
316;DHT22;14128;48.686;9.738;2023-05-31T13:07:51;32.50;99.90
316;DHT22;14128;48.686;9.738;2023-05-31T13:10:18;33.00;99.90
316;DHT22;14128;48.686;9.738;2023-05-31T13:12:45;33.50;99.90
316;DHT22;14128;48.686;9.738;2023-05-31T13:15:12;34.10;99.90
316;DHT22;14128;48.686;9.738;2023-05-31T13:17:39;34.30;99.90
316;DHT22;14128;48.686;9.738;2023-05-31T13:20:08;34.30;99.90
316;DHT22;14128;48.686;9.738;2023-05-31T13:22:35;35.20;99.90
316;DHT22;14128;48.686;9.738;2023-05-31T13:25:02;36.00;99.90
316;DHT22;14128;48.686;9.738;2023-05-31T13:27:29;36.50;99.90
316;DHT22;14128;48.686;9.738;2023-05-31T13:29:56;36.50;99.90
316;DHT22;14128;48.686;9.738;2023-05-31T13:32:23;36.70;99.90
316;DHT22;14128;48.686;9.738;2023-05-31T13:34:50;37.70;99.90
316;DHT22;14128;48.686;9.738;2023-05-31T13:37:18;38.60;99.90
316;DHT22;14128;48.686;9.738;2023-05-31T13:39:46;38.60;99.90
316;DHT22;14128;48.686;9.738;2023-05-31T13:42:13;38.90;99.90
316;DHT22;14128;48.686;9.738;2023-05-31T13:44:40;39.60;99.90
316;DHT22;14128;48.686;9.738;2023-05-31T13:47:07;39.90;99.90
316;DHT22;14128;48.686;9.738;2023-05-31T13:49:34;40.60;99.90
316;DHT22;14128;48.686;9.738;2023-05-31T13:52:02;41.00;99.90
316;DHT22;14128;48.686;9.738;2023-05-31T13:54:32;41.60;99.90
316;DHT22;14128;48.686;9.738;2023-05-31T13:56:59;42.60;99.90
316;DHT22;14128;48.686;9.738;2023-05-31T13:59:26;42.60;99.90
316;DHT22;14128;48.686;9.738;2023-05-31T14:01:53;43.70;99.90
316;DHT22;14128;48.686;9.738;2023-05-31T14:04:20;44.40;99.90
316;DHT22;14128;48.686;9.738;2023-05-31T14:06:47;44.30;99.90
316;DHT22;14128;48.686;9.738;2023-05-31T14:09:14;45.10;99.90
316;DHT22;14128;48.686;9.738;2023-05-31T14:11:44;45.90;99.90
316;DHT22;14128;48.686;9.738;2023-05-31T14:14:11;46.20;99.90
316;DHT22;14128;48.686;9.738;2023-05-31T14:16:38;46.30;99.90
316;DHT22;14128;48.686;9.738;2023-05-31T14:19:05;46.40;1.40
316;DHT22;14128;48.686;9.738;2023-05-31T14:21:32;47.00;99.90
316;DHT22;14128;48.686;9.738;2023-05-31T14:23:58;46.80;99.90
316;DHT22;14128;48.686;9.738;2023-05-31T14:26:25;47.30;99.90
316;DHT22;14128;48.686;9.738;2023-05-31T14:28:54;47.50;99.90
316;DHT22;14128;48.686;9.738;2023-05-31T14:31:21;47.00;99.90
316;DHT22;14128;48.686;9.738;2023-05-31T14:33:48;46.80;99.90
316;DHT22;14128;48.686;9.738;2023-05-31T14:36:16;47.30;99.90
316;DHT22;14128;48.686;9.738;2023-05-31T14:38:43;47.40;99.90
316;DHT22;14128;48.686;9.738;2023-05-31T14:41:10;46.90;99.90
316;DHT22;14128;48.686;9.738;2023-05-31T14:43:37;46.60;99.90
316;DHT22;14128;48.686;9.738;2023-05-31T14:46:05;46.10;99.90
316;DHT22;14128;48.686;9.738;2023-05-31T14:48:32;46.40;1.40
316;DHT22;14128;48.686;9.738;2023-05-31T14:50:59;47.40;99.90
316;DHT22;14128;48.686;9.738;2023-05-31T14:53:26;47.50;99.90
316;DHT22;14128;48.686;9.738;2023-05-31T14:55:52;48.00;99.90
316;DHT22;14128;48.686;9.738;2023-05-31T14:58:19;47.90;99.90
316;DHT22;14128;48.686;9.738;2023-05-31T15:00:46;47.30;99.90
316;DHT22;14128;48.686;9.738;2023-05-31T15:03:15;47.90;99.90
316;DHT22;14128;48.686;9.738;2023-05-31T15:05:41;47.50;99.90
316;DHT22;14128;48.686;9.738;2023-05-31T15:08:08;47.80;99.90
316;DHT22;14128;48.686;9.738;2023-05-31T15:10:35;47.40;99.90
316;DHT22;14128;48.686;9.738;2023-05-31T15:13:02;47.70;99.90
316;DHT22;14128;48.686;9.738;2023-05-31T15:15:29;47.70;99.90
316;DHT22;14128;48.686;9.738;2023-05-31T15:17:55;47.80;99.90
316;DHT22;14128;48.686;9.738;2023-05-31T15:20:24;48.10;99.90
316;DHT22;14128;48.686;9.738;2023-05-31T15:22:51;48.30;1.40
316;DHT22;14128;48.686;9.738;2023-05-31T15:25:17;48.70;99.90
316;DHT22;14128;48.686;9.738;2023-05-31T15:27:46;48.90;99.90
316;DHT22;14128;48.686;9.738;2023-05-31T15:30:13;48.40;99.90
316;DHT22;14128;48.686;9.738;2023-05-31T15:32:40;48.00;99.90
316;DHT22;14128;48.686;9.738;2023-05-31T15:35:07;48.80;99.90
316;DHT22;14128;48.686;9.738;2023-05-31T15:37:36;47.40;99.90
316;DHT22;14128;48.686;9.738;2023-05-31T15:40:03;47.40;99.90
316;DHT22;14128;48.686;9.738;2023-05-31T15:42:30;47.90;99.90
316;DHT22;14128;48.686;9.738;2023-05-31T15:44:57;47.50;99.90
316;DHT22;14128;48.686;9.738;2023-05-31T15:47:24;47.60;99.90
316;DHT22;14128;48.686;9.738;2023-05-31T15:49:50;46.90;1.40
316;DHT22;14128;48.686;9.738;2023-05-31T15:52:18;46.80;99.90
316;DHT22;14128;48.686;9.738;2023-05-31T15:54:46;46.70;99.90
316;DHT22;14128;48.686;9.738;2023-05-31T15:57:13;46.70;99.90
316;DHT22;14128;48.686;9.738;2023-05-31T15:59:40;46.60;99.90
316;DHT22;14128;48.686;9.738;2023-05-31T16:02:07;46.30;99.90
316;DHT22;14128;48.686;9.738;2023-05-31T16:04:33;46.50;99.90
316;DHT22;14128;48.686;9.738;2023-05-31T16:07:00;45.90;99.90
316;DHT22;14128;48.686;9.738;2023-05-31T16:09:27;45.40;99.90
316;DHT22;14128;48.686;9.738;2023-05-31T16:11:55;45.90;99.90
316;DHT22;14128;48.686;9.738;2023-05-31T16:14:22;44.90;99.90